Latest Weather Observations for Mandurah

IDW60901

Issued at 7:31 am WST Wednesday 18 January 2017 (issued every 10 minutes, with the page automatically refreshed every 10 minutes)

About weather observations | Map of Perth area stations | Latest observations for Perth area | Other Formats
Station Details ID: 009977 Name: MANDURAH Lat: -32.52 Lon: 115.71 Height: 3.0 m
Data from the previous 72 hours. | See also: Recent months at Mandurah
Date/Time
WST
Temp
°C
App
Temp
°C
Dew
Point
°C
Rel
Hum
%
Delta-T
°C
Wind Press
QNH
hPa
Press
MSL
hPa
Rain since
9am
mm
Dir  Spd
km/h
Gust
km/h
Spd
kts
Gust
kts
18/07:00am 18.9 15.0 8.6 51 5.3 ENE 19 37 10 20 1011.9 1011.9 0.0
18/06:30am 18.0 14.0 8.3 53 5.0 ENE 19 32 10 17 1011.9 1011.9 0.0
18/06:00am 17.1 14.2 8.0 55 4.6 E 13 22 7 12 1011.6 1011.6 0.0
18/05:30am 17.0 13.3 7.9 55 4.6 E 17 24 9 13 1011.5 1011.5 0.0
18/05:00am 17.3 13.2 7.9 54 4.8 E 19 28 10 15 1011.4 1011.4 0.0
18/04:30am 17.6 13.5 7.9 53 4.9 E 19 32 10 17 1011.1 1011.1 0.0
18/04:00am 17.9 13.6 7.9 52 5.1 E 20 33 11 18 1011.0 1011.0 0.0
18/03:30am 18.4 13.9 8.4 52 5.2 E 22 33 12 18 1011.2 1011.2 0.0
18/03:00am 18.9 15.3 8.3 50 5.5 E 17 28 9 15 1011.3 1011.3 0.0
18/02:30am 19.4 15.7 8.1 48 5.8 E 17 26 9 14 1011.3 1011.3 0.0
18/02:00am 20.0 15.6 7.4 44 6.4 E 20 32 11 17 1011.5 1011.5 0.0
18/01:30am 20.7 15.8 7.0 41 7.0 E 22 35 12 19 1011.4 1011.4 0.0
18/01:00am 21.3 16.8 6.0 37 7.7 E 19 32 10 17 1011.6 1011.6 0.0
18/12:30am 21.9 17.1 5.8 35 8.1 E 20 33 11 18 1011.8 1011.8 0.0
18/12:00am 22.2 17.6 5.6 34 8.3 E 19 32 10 17 1012.1 1012.1 0.0
 
Date/Time
WST
Temp
°C
App
Temp
°C
Dew
Point
°C
Rel
Hum
%
Delta-T
°C
Wind Press
QNH
hPa
Press
MSL
hPa
Rain since
9am
mm
Dir  Spd
km/h
Gust
km/h
Spd
kts
Gust
kts
17/11:30pm 22.4 18.3 6.2 35 8.2 ESE 17 24 9 13 1012.1 1012.1 0.0
17/11:00pm 22.6 18.8 6.0 34 8.4 ESE 15 24 8 13 1012.2 1012.2 0.0
17/10:30pm 22.4 20.2 9.2 43 7.1 SE 11 13 6 7 1012.2 1012.2 0.0
17/10:00pm 22.7 21.4 12.6 53 5.8 SSE 11 15 6 8 1012.3 1012.3 0.0
17/09:30pm 22.7 22.4 14.5 60 4.8 SSE 9 13 5 7 1012.2 1012.2 0.0
17/09:00pm 22.9 22.4 13.9 57 5.3 SSE 9 13 5 7 1012.2 1012.2 0.0
17/08:30pm 22.9 22.1 13.9 57 5.3 S 11 17 6 9 1012.0 1012.0 0.0
17/08:00pm 22.9 21.2 13.7 56 5.4 S 15 20 8 11 1011.8 1011.8 0.0
17/07:30pm 23.1 20.8 13.0 53 5.8 S 17 30 9 16 1011.7 1011.7 0.0
17/07:00pm 23.5 20.8 12.8 51 6.1 SSW 19 28 10 15 1011.4 1011.4 0.0
17/06:30pm 23.9 21.0 12.2 48 6.7 SSW 19 30 10 16 1011.2 1011.2 0.0
17/06:00pm 24.2 21.3 12.2 47 6.8 SSW 19 28 10 15 1011.1 1011.1 0.0
17/05:30pm 24.5 21.0 12.1 46 7.1 SSW 22 35 12 19 1011.0 1011.0 0.0
17/05:00pm 25.2 21.8 12.4 45 7.4 SSW 22 35 12 19 1011.2 1011.2 0.0
17/04:30pm 24.8 20.7 11.4 43 7.6 SSW 24 35 13 19 1011.4 1011.4 0.0
17/04:00pm 25.8 21.9 10.8 39 8.4 SSW 22 35 12 19 1011.7 1011.7 0.0
17/03:30pm 26.4 22.9 10.9 38 8.7 SSW 20 32 11 17 1011.9 1011.9 0.0
17/03:00pm 26.7 22.8 10.8 37 9.0 SSW 22 32 12 17 1012.0 1012.0 0.0
17/02:30pm 27.5 24.3 9.8 33 9.8 SSW 17 30 9 16 1012.1 1012.1 0.0
17/02:00pm 28.6 26.0 7.8 27 11.3 SSE 11 20 6 11 1012.5 1012.5 0.0
17/01:30pm 28.6 25.7 6.7 25 11.6 ESE 11 24 6 13 1013.0 1013.0 0.0
17/01:00pm 27.6 25.2 6.9 27 11.0 SSE 9 19 5 10 1013.3 1013.3 0.0
17/12:30pm 26.9 24.7 6.3 27 10.8 ESE 7 19 4 10 1013.5 1013.5 0.0
17/12:00pm 25.4 22.1 6.6 30 9.8 SE 13 24 7 13 1013.8 1013.8 0.0
17/11:30am 25.4 22.5 6.6 30 9.8 ESE 11 22 6 12 1014.2 1014.2 0.0
17/11:00am 24.8 21.3 7.0 32 9.3 ESE 15 28 8 15 1014.6 1014.6 0.0
17/10:30am 23.0 19.9 7.1 36 8.2 SE 13 20 7 11 1014.9 1014.9 0.0
17/10:00am 22.4 19.1 8.1 40 7.5 ESE 15 24 8 13 1015.2 1015.2 0.0
17/09:30am 21.4 17.5 8.7 44 6.7 SE 19 30 10 16 1015.3 1015.3 0.0
17/09:00am 20.3 16.4 8.6 47 6.1 ESE 19 30 10 16 1015.5 1015.5 0.0
17/08:30am 19.7 15.7 8.1 47 6.0 ESE 19 30 10 16 1015.7 1015.7 0.0
17/08:00am 18.8 14.8 8.2 50 5.4 ESE 19 28 10 15 1016.0 1016.0 0.0
17/07:30am 17.9 15.1 8.5 54 4.8 SE 13 20 7 11 1016.3 1016.3 0.0
17/07:00am 17.2 13.7 8.6 57 4.4 SE 17 28 9 15 1016.2 1016.2 0.0
17/06:30am 16.3 13.4 8.3 59 4.1 SE 13 20 7 11 1016.1 1016.1 0.0
17/06:00am 16.1 12.5 8.3 60 3.9 SE 17 22 9 12 1015.8 1015.8 0.0
17/05:30am 16.1 11.9 8.3 60 4.0 SE 20 26 11 14 1015.4 1015.4 0.0
17/05:00am 16.2 12.4 8.9 62 3.7 SSE 19 26 10 14 1015.0 1015.0 0.0
17/04:30am 16.5 12.4 8.7 60 4.0 SE 20 30 11 16 1014.6 1014.6 0.0
17/04:00am 16.7 13.4 9.4 62 3.8 SSE 17 26 9 14 1014.2 1014.2 0.0
17/03:30am 17.1 13.2 8.8 58 4.3 SE 19 28 10 15 1014.0 1014.0 0.0
17/03:00am 17.5 13.9 8.4 55 4.7 SE 17 24 9 13 1013.8 1013.8 0.0
17/02:30am 17.7 14.5 8.6 55 4.7 SE 15 24 8 13 1013.5 1013.5 0.0
17/02:00am 17.9 14.2 9.3 57 4.5 SE 19 28 10 15 1013.2 1013.2 0.0
17/01:30am 18.1 15.0 10.2 60 4.2 SSE 17 26 9 14 1013.0 1013.0 0.0
17/01:00am 18.1 14.3 9.7 58 4.4 SSE 20 30 11 16 1012.6 1012.6 0.0
17/12:30am 18.3 14.1 9.6 57 4.6 S 22 39 12 21 1012.3 1012.3 0.0
17/12:00am 18.6 13.9 9.4 55 4.8 S 24 37 13 20 1012.1 1012.1 0.0
 
Date/Time
WST
Temp
°C
App
Temp
°C
Dew
Point
°C
Rel
Hum
%
Delta-T
°C
Wind Press
QNH
hPa
Press
MSL
hPa
Rain since
9am
mm
Dir  Spd
km/h
Gust
km/h
Spd
kts
Gust
kts
16/11:30pm 18.9 13.5 9.4 54 5.0 S 28 43 15 23 1012.0 1012.0 0.0
16/11:00pm 19.5 14.2 9.7 53 5.2 S 28 43 15 23 1011.9 1011.9 0.0
16/10:30pm 19.9 14.6 10.0 53 5.3 S 28 39 15 21 1011.8 1011.8 0.0
16/10:00pm 20.4 15.6 10.2 52 5.5 S 26 43 14 23 1011.6 1011.6 0.0
16/09:30pm 20.7 16.0 10.5 52 5.5 S 26 39 14 21 1011.4 1011.4 0.0
16/09:04pm 20.9 15.7 10.1 50 5.8 S 28 48 15 26 1011.0 1011.0 0.0
16/09:00pm 20.9 15.7 10.1 50 5.8 S 28 43 15 23 1010.9 1010.9 0.0
16/08:30pm 21.3 16.3 10.8 51 5.8 S 28 46 15 25 1010.5 1010.5 0.0
16/08:27pm 21.2 16.0 10.4 50 5.9 S 28 46 15 25 1010.4 1010.4 0.0
16/08:00pm 21.5 16.9 10.9 51 5.8 S 26 43 14 23 1010.1 1010.1 0.0
16/07:30pm 21.7 17.5 11.1 51 5.9 SSW 24 43 13 23 1009.8 1009.8 0.0
16/07:20pm 21.8 16.9 11.2 51 5.9 SSW 28 46 15 25 1009.8 1009.8 0.0
16/07:00pm 22.0 17.0 10.8 49 6.2 SSW 28 43 15 23 1009.5 1009.5 0.0
16/06:32pm 22.4 16.4 10.2 46 6.7 SSW 32 52 17 28 1009.4 1009.4 0.0
16/06:30pm 22.5 17.0 10.6 47 6.5 SSW 30 46 16 25 1009.5 1009.5 0.0
16/06:04pm 22.9 17.6 10.0 44 7.0 SSW 28 48 15 26 1009.3 1009.3 0.0
16/06:00pm 22.9 17.6 10.0 44 7.0 SSW 28 43 15 23 1009.3 1009.3 0.0
16/05:30pm 23.2 18.4 11.6 48 6.5 SSW 28 43 15 23 1009.2 1009.2 0.0
16/05:04pm 23.6 18.6 11.0 45 7.0 SSW 28 50 15 27 1009.2 1009.2 0.0
16/05:00pm 23.4 18.9 11.5 47 6.7 SSW 26 43 14 23 1009.2 1009.2 0.0
16/04:38pm 23.7 18.7 11.1 45 7.0 SSW 28 48 15 26 1009.3 1009.3 0.0
16/04:30pm 23.5 18.2 11.2 46 6.9 SSW 30 44 16 24 1009.3 1009.3 0.0
16/04:03pm 23.6 17.9 11.0 45 7.0 SSW 32 52 17 28 1009.4 1009.4 0.0
16/04:00pm 23.8 18.5 11.2 45 7.1 SSW 30 46 16 25 1009.4 1009.4 0.0
16/03:30pm 23.8 19.0 11.5 46 6.9 SSW 28 50 15 27 1009.7 1009.7 0.0
16/03:27pm 23.5 18.8 11.9 48 6.6 SSW 28 50 15 27 1009.7 1009.7 0.0
16/03:00pm 24.4 20.3 12.7 48 6.7 SSW 26 43 14 23 1009.9 1009.9 0.0
16/02:37pm 24.1 19.6 12.7 49 6.6 SSW 28 48 15 26 1010.0 1010.0 0.0
16/02:30pm 23.6 18.3 12.6 50 6.3 SSW 32 46 17 25 1009.9 1009.9 0.0
16/02:00pm 23.2 19.6 13.1 53 5.8 SSW 24 37 13 20 1009.9 1009.9 0.0
16/01:30pm 23.7 19.6 12.7 50 6.3 SSW 26 41 14 22 1010.0 1010.0 0.0
16/01:00pm 23.7 19.3 13.0 51 6.2 SSW 28 43 15 23 1010.1 1010.1 0.0
16/12:30pm 23.4 19.9 13.3 53 5.8 SSW 24 37 13 20 1010.3 1010.3 0.0
16/12:00pm 23.2 19.1 12.8 52 6.0 SSW 26 39 14 21 1010.3 1010.3 0.0
16/11:30am 24.0 20.5 12.3 48 6.7 SW 22 35 12 19 1010.5 1010.5 0.0
16/11:00am 24.3 20.5 9.8 40 7.9 SSW 20 30 11 16 1010.6 1010.6 0.0
16/10:30am 23.1 19.7 10.5 45 6.9 S 19 32 10 17 1010.6 1010.6 0.0
16/10:00am 22.6 19.3 11.0 48 6.4 SSW 19 30 10 16 1010.8 1010.8 0.0
16/09:30am 21.8 19.0 11.5 52 5.7 S 17 26 9 14 1010.9 1010.9 0.0
16/09:00am 21.3 19.2 12.4 57 5.0 S 15 24 8 13 1010.9 1010.9 0.0
16/08:30am 20.5 18.1 12.5 60 4.5 SSE 17 24 9 13 1011.0 1011.0 0.0
16/08:00am 19.9 18.3 12.7 63 4.1 SSE 13 20 7 11 1011.2 1011.2 0.0
16/07:30am 18.9 17.2 12.6 67 3.5 SSE 13 20 7 11 1011.0 1011.0 0.0
16/07:00am 18.7 17.1 12.9 69 3.3 SSE 13 22 7 12 1010.8 1010.8 0.0
16/06:30am 18.4 16.8 12.8 70 3.1 SE 13 19 7 10 1010.6 1010.6 0.0
16/06:00am 18.2 16.2 12.6 70 3.1 SSE 15 20 8 11 1010.3 1010.3 0.0
16/05:30am 17.9 15.5 12.6 71 2.9 S 17 28 9 15 1010.0 1010.0 0.0
16/05:00am 18.0 16.4 12.7 71 3.0 S 13 20 7 11 1009.9 1009.9 0.0
16/04:30am 18.1 16.9 12.8 71 3.0 S 11 19 6 10 1009.6 1009.6 0.0
16/04:00am 18.4 16.8 12.8 70 3.1 SSE 13 22 7 12 1009.1 1009.1 0.0
16/03:30am 18.5 16.1 12.5 68 3.3 S 17 22 9 12 1009.0 1009.0 0.0
16/03:00am 18.6 16.1 12.4 67 3.5 S 17 22 9 12 1008.9 1008.9 0.0
16/02:30am 19.0 16.6 12.5 66 3.6 SSE 17 24 9 13 1008.8 1008.8 0.0
16/02:00am 19.1 16.1 11.9 63 4.0 S 19 30 10 16 1008.9 1008.9 0.0
16/01:30am 19.3 16.0 11.6 61 4.2 S 20 30 11 16 1008.8 1008.8 0.0
16/01:00am 19.8 15.7 11.3 58 4.7 S 24 33 13 18 1008.5 1008.5 0.0
16/12:30am 20.3 16.9 11.2 56 5.0 S 20 32 11 17 1008.4 1008.4 0.0
16/12:00am 20.8 16.7 11.4 55 5.2 S 24 35 13 19 1008.1 1008.1 0.0
 
Date/Time
WST
Temp
°C
App
Temp
°C
Dew
Point
°C
Rel
Hum
%
Delta-T
°C
Wind Press
QNH
hPa
Press
MSL
hPa
Rain since
9am
mm
Dir  Spd
km/h
Gust
km/h
Spd
kts
Gust
kts
15/11:30pm 20.7 17.2 12.1 58 4.8 S 22 35 12 19 1008.0 1008.0 0.0
15/11:00pm 21.0 17.6 12.4 58 4.9 S 22 35 12 19 1007.9 1007.9 0.0
15/10:30pm 21.4 17.8 11.7 54 5.4 S 22 33 12 18 1007.8 1007.8 0.0
15/10:00pm 21.7 18.7 12.5 56 5.2 S 20 32 11 17 1008.0 1008.0 0.0
15/09:30pm 21.9 18.5 13.8 60 4.7 S 24 33 13 18 1008.1 1008.1 0.0
15/09:00pm 22.3 18.9 13.6 58 5.0 S 24 43 13 23 1008.0 1008.0 0.0
15/08:30pm 22.7 19.3 13.7 56 5.2 S 24 37 13 20 1007.9 1007.9 0.0
15/08:00pm 22.4 20.5 15.3 64 4.2 SSW 19 41 10 22 1007.6 1007.6 0.0
15/07:30pm 22.3 20.5 15.4 65 4.1 SSW 19 32 10 17 1007.5 1007.5 0.0
15/07:00pm 22.8 20.7 15.1 62 4.6 SSW 20 33 11 18 1007.2 1007.2 0.0
15/06:30pm 23.4 21.2 14.4 57 5.3 SSW 19 30 10 16 1007.0 1007.0 0.0
15/06:00pm 24.3 22.5 14.4 54 5.9 SW 17 30 9 16 1006.8 1006.8 0.0
15/05:30pm 25.1 22.7 13.9 49 6.6 SSW 19 30 10 16 1006.6 1006.6 0.0
15/05:00pm 25.9 24.3 16.5 56 5.8 SW 20 28 11 15 1006.3 1006.3 0.0
15/04:30pm 27.1 24.5 13.1 42 8.2 SW 19 33 10 18 1006.1 1006.1 0.0
15/04:00pm 27.6 25.0 13.9 43 8.2 SSW 20 32 11 17 1006.2 1006.2 0.0
15/03:30pm 27.5 25.4 14.8 45 7.7 SSW 19 28 10 15 1006.5 1006.5 0.0
15/03:00pm 28.0 26.5 15.3 46 7.8 SSW 17 26 9 14 1006.8 1006.8 0.0
15/02:30pm 28.5 26.8 15.8 46 7.8 SSW 19 30 10 16 1006.9 1006.9 0.0
15/02:00pm 28.6 28.1 16.8 48 7.4 SW 15 22 8 12 1007.2 1007.2 0.0
15/01:30pm 27.9 26.7 16.2 49 7.2 SSW 17 24 9 13 1007.4 1007.4 0.0
15/01:00pm 26.7 24.9 16.9 55 6.1 SW 22 33 12 18 1007.3 1007.3 0.0
15/12:30pm 25.7 23.6 17.1 59 5.3 SW 24 35 13 19 1007.6 1007.6 0.0
15/12:00pm 26.5 25.0 17.8 58 5.5 WSW 22 30 12 16 1007.7 1007.7 0.0
15/11:30am 27.4 26.6 18.1 57 5.9 WSW 19 26 10 14 1007.9 1007.9 0.0
15/11:00am 27.1 26.1 17.6 56 6.0 WSW 19 24 10 13 1008.2 1008.2 0.0
15/10:30am 28.4 28.2 17.6 52 6.8 WSW 15 22 8 12 1008.3 1008.3 0.0
15/10:00am 28.1 28.7 15.7 46 7.6 SSW 7 11 4 6 1008.5 1008.5 0.0
15/09:30am 26.6 27.0 15.3 50 6.9 S 7 13 4 7 1008.7 1008.7 0.0
15/09:00am 25.2 26.1 16.6 59 5.3 SSE 7 9 4 5 1008.8 1008.8 0.0
15/08:30am 24.2 25.3 17.0 64 4.4 S 7 11 4 6 1009.1 1009.1 0.0
15/08:00am 22.9 23.6 17.1 70 3.6 S 9 15 5 8 1009.2 1009.2 0.0

Latest Capital City Observations: Canberra | Sydney | Melbourne | Brisbane | Adelaide | Perth | Hobart | Darwin

Other Formats:

Comma delimited format used in spreadsheet applications
http://www.bom.gov.au/fwo/IDW60901/IDW60901.94605.axf

JavaScript Object Notation format (JSON) in row-major order
http://www.bom.gov.au/fwo/IDW60901/IDW60901.94605.json